sensor_id;sensor_type;location;lat;lon;timestamp;P1;durP1;ratioP1;P2;durP2;ratioP2
22814;SDS011;11574;51.058;13.712;2022-11-20T00:03:52;21.60;;;10.57;;
22814;SDS011;11574;51.058;13.712;2022-11-20T00:08:57;23.83;;;10.70;;
22814;SDS011;11574;51.058;13.712;2022-11-20T00:14:00;25.50;;;12.03;;
22814;SDS011;11574;51.058;13.712;2022-11-20T00:19:03;24.20;;;10.87;;
22814;SDS011;11574;51.058;13.712;2022-11-20T00:24:09;22.63;;;10.73;;
22814;SDS011;11574;51.058;13.712;2022-11-20T00:29:11;27.20;;;11.30;;
22814;SDS011;11574;51.058;13.712;2022-11-20T00:34:13;23.00;;;10.33;;
22814;SDS011;11574;51.058;13.712;2022-11-20T00:39:19;19.87;;;10.00;;
22814;SDS011;11574;51.058;13.712;2022-11-20T00:44:21;23.70;;;10.23;;
22814;SDS011;11574;51.058;13.712;2022-11-20T00:49:23;26.67;;;11.13;;
22814;SDS011;11574;51.058;13.712;2022-11-20T00:54:27;24.23;;;11.70;;
22814;SDS011;11574;51.058;13.712;2022-11-20T00:59:29;19.43;;;9.83;;
22814;SDS011;11574;51.058;13.712;2022-11-20T01:04:32;21.57;;;10.80;;
22814;SDS011;11574;51.058;13.712;2022-11-20T01:09:37;18.57;;;9.30;;
22814;SDS011;11574;51.058;13.712;2022-11-20T01:14:41;28.13;;;9.97;;
22814;SDS011;11574;51.058;13.712;2022-11-20T01:19:43;18.80;;;10.23;;
22814;SDS011;11574;51.058;13.712;2022-11-20T01:24:46;19.20;;;9.53;;
22814;SDS011;11574;51.058;13.712;2022-11-20T01:29:49;21.10;;;9.33;;
22814;SDS011;11574;51.058;13.712;2022-11-20T01:34:51;20.13;;;10.00;;
22814;SDS011;11574;51.058;13.712;2022-11-20T01:39:54;20.87;;;10.10;;
22814;SDS011;11574;51.058;13.712;2022-11-20T01:45:01;23.53;;;9.90;;
22814;SDS011;11574;51.058;13.712;2022-11-20T01:50:05;22.77;;;10.03;;
22814;SDS011;11574;51.058;13.712;2022-11-20T01:55:10;18.40;;;8.83;;
22814;SDS011;11574;51.058;13.712;2022-11-20T02:00:14;20.07;;;9.40;;
22814;SDS011;11574;51.058;13.712;2022-11-20T02:05:19;18.50;;;9.00;;
22814;SDS011;11574;51.058;13.712;2022-11-20T02:10:27;19.13;;;8.93;;
22814;SDS011;11574;51.058;13.712;2022-11-20T02:15:29;22.73;;;9.20;;
22814;SDS011;11574;51.058;13.712;2022-11-20T02:20:32;17.50;;;8.80;;
22814;SDS011;11574;51.058;13.712;2022-11-20T02:25:36;15.90;;;8.07;;
22814;SDS011;11574;51.058;13.712;2022-11-20T02:30:40;17.97;;;8.20;;
22814;SDS011;11574;51.058;13.712;2022-11-20T02:35:44;17.73;;;8.53;;
22814;SDS011;11574;51.058;13.712;2022-11-20T02:40:47;18.10;;;9.50;;
22814;SDS011;11574;51.058;13.712;2022-11-20T02:45:50;24.50;;;10.37;;
22814;SDS011;11574;51.058;13.712;2022-11-20T02:50:52;26.57;;;11.20;;
22814;SDS011;11574;51.058;13.712;2022-11-20T02:55:56;27.00;;;11.10;;
22814;SDS011;11574;51.058;13.712;2022-11-20T03:00:59;24.10;;;12.13;;
22814;SDS011;11574;51.058;13.712;2022-11-20T03:06:02;25.27;;;11.37;;
22814;SDS011;11574;51.058;13.712;2022-11-20T03:11:06;28.53;;;12.70;;
22814;SDS011;11574;51.058;13.712;2022-11-20T03:16:09;29.30;;;12.47;;
22814;SDS011;11574;51.058;13.712;2022-11-20T03:21:13;28.47;;;12.47;;
22814;SDS011;11574;51.058;13.712;2022-11-20T03:26:17;23.40;;;10.87;;
22814;SDS011;11574;51.058;13.712;2022-11-20T03:31:23;19.93;;;9.27;;
22814;SDS011;11574;51.058;13.712;2022-11-20T03:36:26;19.13;;;8.27;;
22814;SDS011;11574;51.058;13.712;2022-11-20T03:41:30;21.63;;;10.20;;
22814;SDS011;11574;51.058;13.712;2022-11-20T03:46:32;24.57;;;8.97;;
22814;SDS011;11574;51.058;13.712;2022-11-20T03:51:35;19.60;;;9.23;;
22814;SDS011;11574;51.058;13.712;2022-11-20T03:56:39;19.63;;;8.90;;
22814;SDS011;11574;51.058;13.712;2022-11-20T04:01:41;17.17;;;7.90;;
22814;SDS011;11574;51.058;13.712;2022-11-20T04:06:44;17.63;;;8.63;;
22814;SDS011;11574;51.058;13.712;2022-11-20T04:11:55;18.80;;;8.47;;
22814;SDS011;11574;51.058;13.712;2022-11-20T04:16:57;21.50;;;9.13;;
22814;SDS011;11574;51.058;13.712;2022-11-20T04:22:00;18.30;;;8.50;;
22814;SDS011;11574;51.058;13.712;2022-11-20T04:27:03;17.37;;;8.17;;
22814;SDS011;11574;51.058;13.712;2022-11-20T04:32:06;18.37;;;7.37;;
22814;SDS011;11574;51.058;13.712;2022-11-20T04:37:08;18.37;;;7.73;;
22814;SDS011;11574;51.058;13.712;2022-11-20T04:42:11;16.87;;;7.37;;
22814;SDS011;11574;51.058;13.712;2022-11-20T04:47:32;14.10;;;6.97;;
22814;SDS011;11574;51.058;13.712;2022-11-20T04:52:34;18.80;;;7.63;;
22814;SDS011;11574;51.058;13.712;2022-11-20T04:57:37;18.70;;;8.47;;
22814;SDS011;11574;51.058;13.712;2022-11-20T05:02:39;20.57;;;8.43;;
22814;SDS011;11574;51.058;13.712;2022-11-20T05:07:42;23.67;;;10.17;;
22814;SDS011;11574;51.058;13.712;2022-11-20T05:12:47;24.67;;;11.07;;
22814;SDS011;11574;51.058;13.712;2022-11-20T05:17:50;23.30;;;9.90;;
22814;SDS011;11574;51.058;13.712;2022-11-20T05:22:56;24.20;;;11.70;;
22814;SDS011;11574;51.058;13.712;2022-11-20T05:27:59;21.87;;;10.00;;
22814;SDS011;11574;51.058;13.712;2022-11-20T05:33:01;18.93;;;7.57;;
22814;SDS011;11574;51.058;13.712;2022-11-20T05:38:04;18.30;;;7.30;;
22814;SDS011;11574;51.058;13.712;2022-11-20T05:43:07;19.37;;;6.83;;
22814;SDS011;11574;51.058;13.712;2022-11-20T05:48:09;13.20;;;6.20;;
22814;SDS011;11574;51.058;13.712;2022-11-20T05:53:11;16.07;;;5.53;;
22814;SDS011;11574;51.058;13.712;2022-11-20T05:58:15;11.90;;;5.73;;
22814;SDS011;11574;51.058;13.712;2022-11-20T06:03:19;11.43;;;5.43;;
22814;SDS011;11574;51.058;13.712;2022-11-20T06:08:21;11.50;;;4.90;;
22814;SDS011;11574;51.058;13.712;2022-11-20T06:13:24;12.30;;;5.27;;
22814;SDS011;11574;51.058;13.712;2022-11-20T06:18:27;13.87;;;5.83;;
22814;SDS011;11574;51.058;13.712;2022-11-20T06:23:30;13.07;;;5.50;;
22814;SDS011;11574;51.058;13.712;2022-11-20T06:28:34;9.70;;;4.80;;
22814;SDS011;11574;51.058;13.712;2022-11-20T06:33:37;12.60;;;5.50;;
22814;SDS011;11574;51.058;13.712;2022-11-20T06:38:39;11.10;;;5.37;;
22814;SDS011;11574;51.058;13.712;2022-11-20T06:43:43;10.50;;;4.70;;
22814;SDS011;11574;51.058;13.712;2022-11-20T06:48:46;11.90;;;5.30;;
22814;SDS011;11574;51.058;13.712;2022-11-20T06:53:48;11.23;;;4.90;;
22814;SDS011;11574;51.058;13.712;2022-11-20T06:58:53;13.70;;;5.63;;
22814;SDS011;11574;51.058;13.712;2022-11-20T07:03:55;14.37;;;6.83;;
22814;SDS011;11574;51.058;13.712;2022-11-20T07:08:57;19.73;;;8.13;;
22814;SDS011;11574;51.058;13.712;2022-11-20T07:14:02;20.40;;;9.00;;
22814;SDS011;11574;51.058;13.712;2022-11-20T07:19:05;25.00;;;10.50;;
22814;SDS011;11574;51.058;13.712;2022-11-20T07:24:07;24.30;;;10.17;;
22814;SDS011;11574;51.058;13.712;2022-11-20T07:29:11;21.93;;;10.10;;
22814;SDS011;11574;51.058;13.712;2022-11-20T07:34:13;23.07;;;10.13;;
22814;SDS011;11574;51.058;13.712;2022-11-20T07:39:17;20.03;;;9.43;;
22814;SDS011;11574;51.058;13.712;2022-11-20T07:44:21;21.97;;;8.70;;
22814;SDS011;11574;51.058;13.712;2022-11-20T07:49:23;20.87;;;7.27;;
22814;SDS011;11574;51.058;13.712;2022-11-20T07:54:25;16.00;;;6.97;;
22814;SDS011;11574;51.058;13.712;2022-11-20T07:59:28;15.20;;;6.70;;
22814;SDS011;11574;51.058;13.712;2022-11-20T08:04:31;14.43;;;6.30;;
22814;SDS011;11574;51.058;13.712;2022-11-20T08:09:33;22.50;;;9.30;;
22814;SDS011;11574;51.058;13.712;2022-11-20T08:14:36;20.00;;;9.03;;
22814;SDS011;11574;51.058;13.712;2022-11-20T08:19:39;21.63;;;9.93;;
22814;SDS011;11574;51.058;13.712;2022-11-20T08:24:41;19.53;;;10.90;;
22814;SDS011;11574;51.058;13.712;2022-11-20T08:29:45;23.70;;;11.30;;
22814;SDS011;11574;51.058;13.712;2022-11-20T08:34:47;21.03;;;12.23;;
22814;SDS011;11574;51.058;13.712;2022-11-20T08:39:49;19.80;;;12.80;;
22814;SDS011;11574;51.058;13.712;2022-11-20T08:44:54;21.60;;;14.23;;
22814;SDS011;11574;51.058;13.712;2022-11-20T08:49:57;24.73;;;15.07;;
22814;SDS011;11574;51.058;13.712;2022-11-20T08:54:59;21.90;;;13.90;;
22814;SDS011;11574;51.058;13.712;2022-11-20T09:00:03;23.13;;;14.63;;
22814;SDS011;11574;51.058;13.712;2022-11-20T09:05:06;23.60;;;14.37;;
22814;SDS011;11574;51.058;13.712;2022-11-20T09:10:08;23.90;;;14.03;;
22814;SDS011;11574;51.058;13.712;2022-11-20T09:15:12;26.00;;;14.53;;
22814;SDS011;11574;51.058;13.712;2022-11-20T09:20:14;22.33;;;14.60;;
22814;SDS011;11574;51.058;13.712;2022-11-20T09:25:16;21.47;;;13.90;;
22814;SDS011;11574;51.058;13.712;2022-11-20T09:30:20;20.23;;;14.33;;
22814;SDS011;11574;51.058;13.712;2022-11-20T09:35:22;21.57;;;13.97;;
22814;SDS011;11574;51.058;13.712;2022-11-20T09:40:25;21.93;;;14.50;;
22814;SDS011;11574;51.058;13.712;2022-11-20T09:45:34;20.17;;;13.80;;
22814;SDS011;11574;51.058;13.712;2022-11-20T09:50:41;20.97;;;13.27;;
22814;SDS011;11574;51.058;13.712;2022-11-20T09:55:44;18.77;;;12.53;;
22814;SDS011;11574;51.058;13.712;2022-11-20T10:00:48;18.97;;;12.27;;
22814;SDS011;11574;51.058;13.712;2022-11-20T10:05:52;17.63;;;12.57;;
22814;SDS011;11574;51.058;13.712;2022-11-20T10:10:56;18.03;;;14.33;;
22814;SDS011;11574;51.058;13.712;2022-11-20T10:16:07;18.30;;;12.40;;
22814;SDS011;11574;51.058;13.712;2022-11-20T10:21:18;20.80;;;12.87;;
22814;SDS011;11574;51.058;13.712;2022-11-20T10:26:26;19.97;;;11.97;;
22814;SDS011;11574;51.058;13.712;2022-11-20T10:31:33;17.07;;;11.23;;
22814;SDS011;11574;51.058;13.712;2022-11-20T10:36:36;20.23;;;11.67;;
22814;SDS011;11574;51.058;13.712;2022-11-20T10:41:41;18.53;;;11.17;;
22814;SDS011;11574;51.058;13.712;2022-11-20T10:46:48;16.97;;;10.97;;
22814;SDS011;11574;51.058;13.712;2022-11-20T10:51:54;18.37;;;10.43;;
22814;SDS011;11574;51.058;13.712;2022-11-20T10:57:02;16.37;;;9.70;;
22814;SDS011;11574;51.058;13.712;2022-11-20T11:02:18;18.67;;;8.97;;
22814;SDS011;11574;51.058;13.712;2022-11-20T11:07:22;18.17;;;8.87;;
22814;SDS011;11574;51.058;13.712;2022-11-20T11:12:26;16.67;;;9.30;;
22814;SDS011;11574;51.058;13.712;2022-11-20T11:17:31;12.53;;;7.17;;
22814;SDS011;11574;51.058;13.712;2022-11-20T11:22:34;12.87;;;7.67;;
22814;SDS011;11574;51.058;13.712;2022-11-20T11:27:45;14.57;;;8.47;;
22814;SDS011;11574;51.058;13.712;2022-11-20T11:32:49;8.47;;;4.77;;
22814;SDS011;11574;51.058;13.712;2022-11-20T11:37:51;10.63;;;5.13;;
22814;SDS011;11574;51.058;13.712;2022-11-20T11:42:56;9.87;;;5.57;;
22814;SDS011;11574;51.058;13.712;2022-11-20T11:48:01;10.17;;;5.27;;
22814;SDS011;11574;51.058;13.712;2022-11-20T11:53:07;17.50;;;6.07;;
22814;SDS011;11574;51.058;13.712;2022-11-20T11:58:12;11.03;;;6.43;;
22814;SDS011;11574;51.058;13.712;2022-11-20T12:03:18;9.13;;;5.03;;
22814;SDS011;11574;51.058;13.712;2022-11-20T12:08:23;9.90;;;5.40;;
22814;SDS011;11574;51.058;13.712;2022-11-20T12:13:37;12.50;;;6.20;;
22814;SDS011;11574;51.058;13.712;2022-11-20T12:18:42;11.20;;;5.60;;
22814;SDS011;11574;51.058;13.712;2022-11-20T12:23:53;11.17;;;6.07;;
22814;SDS011;11574;51.058;13.712;2022-11-20T12:29:01;10.67;;;5.60;;
22814;SDS011;11574;51.058;13.712;2022-11-20T12:34:15;12.77;;;6.03;;
22814;SDS011;11574;51.058;13.712;2022-11-20T12:39:32;15.03;;;7.13;;
22814;SDS011;11574;51.058;13.712;2022-11-20T12:50:13;10.90;;;4.73;;
22814;SDS011;11574;51.058;13.712;2022-11-20T12:55:21;12.27;;;6.33;;
22814;SDS011;11574;51.058;13.712;2022-11-20T13:00:25;9.97;;;7.00;;
22814;SDS011;11574;51.058;13.712;2022-11-20T13:05:31;11.93;;;6.53;;
22814;SDS011;11574;51.058;13.712;2022-11-20T13:10:35;11.67;;;6.37;;
22814;SDS011;11574;51.058;13.712;2022-11-20T13:15:43;10.67;;;5.93;;
22814;SDS011;11574;51.058;13.712;2022-11-20T13:20:48;7.53;;;4.60;;
22814;SDS011;11574;51.058;13.712;2022-11-20T13:25:51;11.80;;;5.63;;
22814;SDS011;11574;51.058;13.712;2022-11-20T13:30:54;8.70;;;4.10;;
22814;SDS011;11574;51.058;13.712;2022-11-20T13:35:59;8.80;;;4.70;;
22814;SDS011;11574;51.058;13.712;2022-11-20T13:41:02;17.57;;;5.20;;
22814;SDS011;11574;51.058;13.712;2022-11-20T13:46:34;9.63;;;5.10;;
22814;SDS011;11574;51.058;13.712;2022-11-20T13:51:40;13.53;;;5.77;;
22814;SDS011;11574;51.058;13.712;2022-11-20T13:56:45;10.53;;;5.70;;
22814;SDS011;11574;51.058;13.712;2022-11-20T14:01:50;9.83;;;5.77;;
22814;SDS011;11574;51.058;13.712;2022-11-20T14:06:53;14.20;;;5.50;;
22814;SDS011;11574;51.058;13.712;2022-11-20T14:11:56;9.13;;;5.33;;
22814;SDS011;11574;51.058;13.712;2022-11-20T14:17:05;10.70;;;6.13;;
22814;SDS011;11574;51.058;13.712;2022-11-20T14:22:10;11.40;;;6.07;;
22814;SDS011;11574;51.058;13.712;2022-11-20T14:27:18;11.03;;;6.20;;
22814;SDS011;11574;51.058;13.712;2022-11-20T14:32:22;9.03;;;5.87;;
22814;SDS011;11574;51.058;13.712;2022-11-20T14:37:27;11.80;;;6.20;;
22814;SDS011;11574;51.058;13.712;2022-11-20T14:42:32;13.37;;;6.30;;
22814;SDS011;11574;51.058;13.712;2022-11-20T14:47:37;10.37;;;5.93;;
22814;SDS011;11574;51.058;13.712;2022-11-20T14:52:49;14.47;;;7.47;;
22814;SDS011;11574;51.058;13.712;2022-11-20T14:57:54;11.17;;;5.73;;
22814;SDS011;11574;51.058;13.712;2022-11-20T15:02:57;11.63;;;6.90;;
22814;SDS011;11574;51.058;13.712;2022-11-20T15:08:06;11.30;;;5.90;;
22814;SDS011;11574;51.058;13.712;2022-11-20T15:13:10;12.30;;;6.40;;
22814;SDS011;11574;51.058;13.712;2022-11-20T15:18:14;13.30;;;7.30;;
22814;SDS011;11574;51.058;13.712;2022-11-20T15:23:18;12.50;;;6.60;;
22814;SDS011;11574;51.058;13.712;2022-11-20T15:28:21;15.47;;;7.97;;
22814;SDS011;11574;51.058;13.712;2022-11-20T15:33:25;14.23;;;7.13;;
22814;SDS011;11574;51.058;13.712;2022-11-20T15:38:28;15.23;;;7.00;;
22814;SDS011;11574;51.058;13.712;2022-11-20T15:43:30;14.03;;;7.00;;
22814;SDS011;11574;51.058;13.712;2022-11-20T15:48:35;13.23;;;7.00;;
22814;SDS011;11574;51.058;13.712;2022-11-20T15:53:39;13.93;;;6.97;;
22814;SDS011;11574;51.058;13.712;2022-11-20T15:58:42;14.83;;;7.70;;
22814;SDS011;11574;51.058;13.712;2022-11-20T16:03:44;13.97;;;7.10;;
22814;SDS011;11574;51.058;13.712;2022-11-20T16:08:48;16.43;;;7.90;;
22814;SDS011;11574;51.058;13.712;2022-11-20T16:13:50;14.80;;;7.73;;
22814;SDS011;11574;51.058;13.712;2022-11-20T16:19:21;13.93;;;7.40;;
22814;SDS011;11574;51.058;13.712;2022-11-20T16:24:25;14.63;;;7.70;;
22814;SDS011;11574;51.058;13.712;2022-11-20T16:29:27;15.87;;;7.60;;
22814;SDS011;11574;51.058;13.712;2022-11-20T16:34:29;13.47;;;7.20;;
22814;SDS011;11574;51.058;13.712;2022-11-20T16:39:33;14.13;;;6.90;;
22814;SDS011;11574;51.058;13.712;2022-11-20T16:44:35;19.13;;;9.63;;
22814;SDS011;11574;51.058;13.712;2022-11-20T16:49:37;15.53;;;7.97;;
22814;SDS011;11574;51.058;13.712;2022-11-20T16:54:42;14.63;;;7.70;;
22814;SDS011;11574;51.058;13.712;2022-11-20T16:59:45;20.13;;;9.27;;
22814;SDS011;11574;51.058;13.712;2022-11-20T17:04:47;17.57;;;9.03;;
22814;SDS011;11574;51.058;13.712;2022-11-20T17:09:51;16.00;;;8.07;;
22814;SDS011;11574;51.058;13.712;2022-11-20T17:14:53;19.30;;;10.63;;
22814;SDS011;11574;51.058;13.712;2022-11-20T17:19:55;18.13;;;8.03;;
22814;SDS011;11574;51.058;13.712;2022-11-20T17:24:59;17.73;;;8.97;;
22814;SDS011;11574;51.058;13.712;2022-11-20T17:30:01;15.03;;;7.87;;
22814;SDS011;11574;51.058;13.712;2022-11-20T17:35:03;19.53;;;8.60;;
22814;SDS011;11574;51.058;13.712;2022-11-20T17:40:07;16.87;;;8.73;;
22814;SDS011;11574;51.058;13.712;2022-11-20T17:45:13;14.00;;;7.57;;
22814;SDS011;11574;51.058;13.712;2022-11-20T17:50:15;15.57;;;8.53;;
22814;SDS011;11574;51.058;13.712;2022-11-20T17:55:19;15.33;;;7.97;;
22814;SDS011;11574;51.058;13.712;2022-11-20T18:00:22;17.53;;;9.33;;
22814;SDS011;11574;51.058;13.712;2022-11-20T18:05:25;19.63;;;8.87;;
22814;SDS011;11574;51.058;13.712;2022-11-20T18:10:29;20.47;;;9.47;;
22814;SDS011;11574;51.058;13.712;2022-11-20T18:15:31;18.33;;;8.77;;
22814;SDS011;11574;51.058;13.712;2022-11-20T18:20:33;15.80;;;8.40;;
22814;SDS011;11574;51.058;13.712;2022-11-20T18:25:37;17.60;;;9.17;;
22814;SDS011;11574;51.058;13.712;2022-11-20T18:30:39;17.40;;;8.23;;
22814;SDS011;11574;51.058;13.712;2022-11-20T18:35:41;18.10;;;9.73;;
22814;SDS011;11574;51.058;13.712;2022-11-20T18:40:45;18.87;;;9.37;;
22814;SDS011;11574;51.058;13.712;2022-11-20T18:45:48;20.40;;;9.57;;
22814;SDS011;11574;51.058;13.712;2022-11-20T18:50:51;18.27;;;9.33;;
22814;SDS011;11574;51.058;13.712;2022-11-20T18:55:55;16.83;;;9.20;;
22814;SDS011;11574;51.058;13.712;2022-11-20T19:01:02;16.43;;;9.07;;
22814;SDS011;11574;51.058;13.712;2022-11-20T19:06:05;20.67;;;10.03;;
22814;SDS011;11574;51.058;13.712;2022-11-20T19:11:10;17.63;;;9.30;;
22814;SDS011;11574;51.058;13.712;2022-11-20T19:16:14;19.33;;;8.83;;
22814;SDS011;11574;51.058;13.712;2022-11-20T19:21:17;17.10;;;9.40;;
22814;SDS011;11574;51.058;13.712;2022-11-20T19:26:22;15.87;;;8.90;;
22814;SDS011;11574;51.058;13.712;2022-11-20T19:31:33;17.27;;;9.10;;
22814;SDS011;11574;51.058;13.712;2022-11-20T19:36:36;24.00;;;11.27;;
22814;SDS011;11574;51.058;13.712;2022-11-20T19:41:40;17.00;;;9.57;;
22814;SDS011;11574;51.058;13.712;2022-11-20T19:46:42;23.20;;;10.70;;
22814;SDS011;11574;51.058;13.712;2022-11-20T19:51:46;20.87;;;11.30;;
22814;SDS011;11574;51.058;13.712;2022-11-20T19:56:52;20.90;;;11.33;;
22814;SDS011;11574;51.058;13.712;2022-11-20T20:01:56;23.80;;;11.70;;
22814;SDS011;11574;51.058;13.712;2022-11-20T20:07:01;26.60;;;12.67;;
22814;SDS011;11574;51.058;13.712;2022-11-20T20:12:06;29.60;;;13.53;;
22814;SDS011;11574;51.058;13.712;2022-11-20T20:17:08;24.77;;;12.53;;
22814;SDS011;11574;51.058;13.712;2022-11-20T20:22:11;28.30;;;13.27;;
22814;SDS011;11574;51.058;13.712;2022-11-20T20:27:14;28.70;;;13.20;;
22814;SDS011;11574;51.058;13.712;2022-11-20T20:32:16;30.00;;;13.13;;
22814;SDS011;11574;51.058;13.712;2022-11-20T20:37:18;26.93;;;12.73;;
22814;SDS011;11574;51.058;13.712;2022-11-20T20:42:22;28.10;;;12.93;;
22814;SDS011;11574;51.058;13.712;2022-11-20T20:47:28;25.07;;;12.43;;
22814;SDS011;11574;51.058;13.712;2022-11-20T20:52:31;27.63;;;12.93;;
22814;SDS011;11574;51.058;13.712;2022-11-20T20:57:34;28.60;;;13.87;;
22814;SDS011;11574;51.058;13.712;2022-11-20T21:02:37;30.17;;;14.37;;
22814;SDS011;11574;51.058;13.712;2022-11-20T21:07:39;25.67;;;12.73;;
22814;SDS011;11574;51.058;13.712;2022-11-20T21:12:57;27.97;;;13.77;;
22814;SDS011;11574;51.058;13.712;2022-11-20T21:18:00;30.10;;;13.43;;
22814;SDS011;11574;51.058;13.712;2022-11-20T21:23:06;28.77;;;13.57;;
22814;SDS011;11574;51.058;13.712;2022-11-20T21:28:10;28.60;;;13.17;;
22814;SDS011;11574;51.058;13.712;2022-11-20T21:33:12;27.87;;;13.07;;
22814;SDS011;11574;51.058;13.712;2022-11-20T21:38:15;30.63;;;13.33;;
22814;SDS011;11574;51.058;13.712;2022-11-20T21:43:19;29.57;;;13.80;;
22814;SDS011;11574;51.058;13.712;2022-11-20T21:48:21;27.27;;;13.00;;
22814;SDS011;11574;51.058;13.712;2022-11-20T21:53:25;29.30;;;13.13;;
22814;SDS011;11574;51.058;13.712;2022-11-20T21:58:28;31.23;;;13.30;;
22814;SDS011;11574;51.058;13.712;2022-11-20T22:03:30;27.53;;;13.00;;
22814;SDS011;11574;51.058;13.712;2022-11-20T22:08:34;30.13;;;13.63;;
22814;SDS011;11574;51.058;13.712;2022-11-20T22:13:39;35.97;;;14.40;;
22814;SDS011;11574;51.058;13.712;2022-11-20T22:19:00;27.87;;;12.73;;
22814;SDS011;11574;51.058;13.712;2022-11-20T22:24:02;34.57;;;16.20;;
22814;SDS011;11574;51.058;13.712;2022-11-20T22:29:06;30.23;;;13.20;;
22814;SDS011;11574;51.058;13.712;2022-11-20T22:34:08;30.70;;;13.67;;
22814;SDS011;11574;51.058;13.712;2022-11-20T22:39:11;33.13;;;15.17;;
22814;SDS011;11574;51.058;13.712;2022-11-20T22:44:14;31.83;;;14.03;;
22814;SDS011;11574;51.058;13.712;2022-11-20T22:49:17;37.23;;;16.20;;
22814;SDS011;11574;51.058;13.712;2022-11-20T22:54:19;36.43;;;16.20;;
22814;SDS011;11574;51.058;13.712;2022-11-20T22:59:22;36.37;;;15.97;;
22814;SDS011;11574;51.058;13.712;2022-11-20T23:04:24;41.13;;;16.03;;
22814;SDS011;11574;51.058;13.712;2022-11-20T23:09:27;38.13;;;16.50;;
22814;SDS011;11574;51.058;13.712;2022-11-20T23:14:30;40.53;;;18.00;;
22814;SDS011;11574;51.058;13.712;2022-11-20T23:19:34;42.77;;;17.97;;
22814;SDS011;11574;51.058;13.712;2022-11-20T23:24:37;44.03;;;18.90;;
22814;SDS011;11574;51.058;13.712;2022-11-20T23:29:41;44.80;;;18.40;;
22814;SDS011;11574;51.058;13.712;2022-11-20T23:34:45;51.60;;;19.30;;
22814;SDS011;11574;51.058;13.712;2022-11-20T23:39:47;50.57;;;19.87;;
22814;SDS011;11574;51.058;13.712;2022-11-20T23:44:50;54.03;;;20.60;;
22814;SDS011;11574;51.058;13.712;2022-11-20T23:49:52;46.47;;;20.97;;
22814;SDS011;11574;51.058;13.712;2022-11-20T23:54:54;54.53;;;21.30;;
22814;SDS011;11574;51.058;13.712;2022-11-20T23:59:58;54.33;;;22.63;;
